createdAt,value
2018-09-25T00:00:15.818Z,0.63
2018-09-25T00:02:50.040Z,1.27
2018-09-25T00:05:24.221Z,0.93
2018-09-25T00:07:58.475Z,1.00
2018-09-25T00:10:32.618Z,0.90
2018-09-25T00:13:06.915Z,1.10
2018-09-25T00:15:41.076Z,1.20
2018-09-25T00:18:15.256Z,1.00
2018-09-25T00:20:49.660Z,1.37
2018-09-25T00:23:23.845Z,0.90
2018-09-25T00:25:58.103Z,0.60
2018-09-25T00:28:32.276Z,0.83
2018-09-25T00:31:06.427Z,0.90
2018-09-25T00:33:40.752Z,1.07
2018-09-25T00:36:14.954Z,1.10
2018-09-25T00:38:49.276Z,1.33
2018-09-25T00:41:23.465Z,1.63
2018-09-25T00:43:57.624Z,1.00
2018-09-25T00:46:31.696Z,1.00
2018-09-25T00:49:05.838Z,0.60
2018-09-25T00:51:39.909Z,1.10
2018-09-25T00:54:14.169Z,0.70
2018-09-25T00:56:48.329Z,1.17
2018-09-25T00:59:22.626Z,1.00
2018-09-25T01:01:56.816Z,0.93
2018-09-25T01:04:31.467Z,1.07
2018-09-25T01:07:06.165Z,0.87
2018-09-25T01:09:40.822Z,0.90
2018-09-25T01:12:15.343Z,1.10
2018-09-25T01:14:50.053Z,1.20
2018-09-25T01:17:24.595Z,1.10
2018-09-25T01:19:59.089Z,1.10
2018-09-25T01:22:33.683Z,1.40
2018-09-25T01:25:08.036Z,1.00
2018-09-25T01:27:42.551Z,0.57
2018-09-25T01:30:16.985Z,0.60
2018-09-25T01:32:51.399Z,1.47
2018-09-25T01:35:26.044Z,1.30
2018-09-25T01:38:00.343Z,0.97
2018-09-25T01:40:34.858Z,1.20
2018-09-25T01:43:09.420Z,1.00
2018-09-25T01:45:43.762Z,0.90
2018-09-25T01:48:18.108Z,1.53
2018-09-25T01:50:52.776Z,1.40
2018-09-25T01:53:27.144Z,1.73
2018-09-25T01:56:01.571Z,1.70
2018-09-25T01:58:36.048Z,1.07
2018-09-25T02:01:10.741Z,1.63
2018-09-25T02:03:45.066Z,1.50
2018-09-25T02:06:19.683Z,0.90
2018-09-25T02:08:54.018Z,1.33
2018-09-25T02:11:28.659Z,1.13
2018-09-25T02:14:02.846Z,1.33
2018-09-25T02:16:37.131Z,1.40
2018-09-25T02:19:11.347Z,0.63
2018-09-25T02:21:45.931Z,0.87
2018-09-25T02:24:20.352Z,1.67
2018-09-25T02:26:54.626Z,1.57
2018-09-25T02:29:28.753Z,1.47
2018-09-25T02:32:03.033Z,1.00
2018-09-25T02:34:37.162Z,1.00
2018-09-25T02:37:11.352Z,1.17
2018-09-25T02:39:45.476Z,1.30
2018-09-25T02:42:19.665Z,1.50
2018-09-25T02:44:54.054Z,1.23
2018-09-25T02:47:28.365Z,1.43
2018-09-25T02:50:02.582Z,1.23
2018-09-25T02:52:36.770Z,1.20
2018-09-25T02:55:10.875Z,1.03
2018-09-25T02:57:45.108Z,1.30
2018-09-25T03:00:19.400Z,1.30
2018-09-25T03:02:53.566Z,1.03
2018-09-25T03:05:27.762Z,0.90
2018-09-25T03:08:01.961Z,1.10
2018-09-25T03:10:36.075Z,1.40
2018-09-25T03:13:10.246Z,1.53
2018-09-25T03:15:44.505Z,0.80
2018-09-25T03:18:18.571Z,1.20
2018-09-25T03:20:52.539Z,0.97
2018-09-25T03:23:26.749Z,1.13
2018-09-25T03:26:00.906Z,1.23
2018-09-25T03:28:35.064Z,0.87
2018-09-25T03:31:09.154Z,0.93
2018-09-25T03:33:43.297Z,1.30
2018-09-25T03:36:17.427Z,0.93
2018-09-25T03:38:51.572Z,0.90
2018-09-25T03:41:25.861Z,0.70
2018-09-25T03:43:59.809Z,1.00
2018-09-25T03:46:33.815Z,0.83
2018-09-25T03:49:07.757Z,1.53
2018-09-25T03:51:41.854Z,2.00
2018-09-25T03:54:15.970Z,1.47
2018-09-25T03:56:49.930Z,1.10
2018-09-25T03:59:24.028Z,0.90
2018-09-25T04:01:58.167Z,1.30
2018-09-25T04:04:32.254Z,1.60
2018-09-25T04:07:06.357Z,1.47
2018-09-25T04:09:40.488Z,1.37
2018-09-25T04:12:14.625Z,1.23
2018-09-25T04:14:48.778Z,1.13
2018-09-25T04:17:22.885Z,0.93
2018-09-25T04:19:57.038Z,1.20
2018-09-25T04:22:31.291Z,1.27
2018-09-25T04:25:05.387Z,1.50
2018-09-25T04:27:39.358Z,1.13
2018-09-25T04:30:13.474Z,1.50
2018-09-25T04:32:47.638Z,1.13
2018-09-25T04:35:21.653Z,1.20
2018-09-25T04:37:55.840Z,1.30
2018-09-25T04:40:29.970Z,1.17
2018-09-25T04:43:04.173Z,1.07
2018-09-25T04:45:38.294Z,1.00
2018-09-25T04:48:12.392Z,3.00
2018-09-25T04:50:46.539Z,1.33
2018-09-25T04:53:20.542Z,1.83
2018-09-25T04:55:54.546Z,1.10
2018-09-25T04:58:28.648Z,1.10
2018-09-25T05:01:02.810Z,1.30
2018-09-25T05:03:36.769Z,1.60
2018-09-25T05:06:11.097Z,1.20
2018-09-25T05:08:45.306Z,0.90
2018-09-25T05:11:19.487Z,1.03
2018-09-25T05:13:53.695Z,1.57
2018-09-25T05:16:27.794Z,0.93
2018-09-25T05:19:01.829Z,1.70
2018-09-25T05:21:35.798Z,1.43
2018-09-25T05:24:09.773Z,1.30
2018-09-25T05:26:43.886Z,1.40
2018-09-25T05:29:18.113Z,1.40
2018-09-25T05:31:52.278Z,1.60
2018-09-25T05:34:26.434Z,1.43
2018-09-25T05:37:00.477Z,1.23
2018-09-25T05:39:34.747Z,1.30
2018-09-25T05:42:08.926Z,1.77
2018-09-25T05:44:43.106Z,1.70
2018-09-25T05:47:17.219Z,1.73
2018-09-25T05:49:51.471Z,1.63
2018-09-25T05:52:25.837Z,1.00
2018-09-25T05:55:00.520Z,1.17
2018-09-25T05:57:34.669Z,1.10
2018-09-25T06:00:08.945Z,1.33
2018-09-25T06:02:43.524Z,1.80
2018-09-25T06:05:17.897Z,2.00
2018-09-25T06:07:52.317Z,1.70
2018-09-25T06:10:26.658Z,1.73
2018-09-25T06:13:00.908Z,1.90
2018-09-25T06:15:35.707Z,1.73
2018-09-25T06:18:10.095Z,1.77
2018-09-25T06:20:44.362Z,1.67
2018-09-25T06:23:18.746Z,1.93
2018-09-25T06:25:52.933Z,1.03
2018-09-25T06:28:27.269Z,1.30
2018-09-25T06:31:01.477Z,1.40
2018-09-25T06:33:42.417Z,1.40
2018-09-25T06:36:16.879Z,1.70
2018-09-25T06:38:51.119Z,1.20
2018-09-25T06:41:25.407Z,1.30
2018-09-25T06:43:59.677Z,1.67
2018-09-25T06:46:34.283Z,1.60
2018-09-25T06:49:09.282Z,2.10
2018-09-25T06:51:43.489Z,1.80
2018-09-25T06:54:17.770Z,1.43
2018-09-25T06:56:52.449Z,2.23
2018-09-25T06:59:26.767Z,1.10
2018-09-25T07:02:01.138Z,1.70
2018-09-25T07:04:35.312Z,2.70
2018-09-25T07:07:09.685Z,1.90
2018-09-25T07:09:44.426Z,1.00
2018-09-25T07:12:18.977Z,2.00
2018-09-25T07:14:53.319Z,1.50
2018-09-25T07:17:27.847Z,2.40
2018-09-25T07:20:02.323Z,2.07
2018-09-25T07:22:36.619Z,1.70
2018-09-25T07:25:10.917Z,1.30
2018-09-25T07:27:45.284Z,1.83
2018-09-25T07:30:20.047Z,2.10
2018-09-25T07:32:54.372Z,2.00
2018-09-25T07:35:28.274Z,2.30
2018-09-25T07:38:02.533Z,1.23
2018-09-25T07:40:36.766Z,2.23
2018-09-25T07:43:11.206Z,1.87
2018-09-25T07:45:45.279Z,2.93
2018-09-25T07:48:19.524Z,1.83
2018-09-25T07:50:54.010Z,2.43
2018-09-25T07:53:28.231Z,2.50
2018-09-25T07:56:02.483Z,1.97
2018-09-25T07:58:36.565Z,1.90
2018-09-25T08:01:10.872Z,1.57
2018-09-25T08:03:45.241Z,2.30
2018-09-25T08:06:19.607Z,1.97
2018-09-25T08:08:54.838Z,1.67
2018-09-25T08:11:29.162Z,1.83
2018-09-25T08:14:03.457Z,1.57
2018-09-25T08:16:37.690Z,2.10
2018-09-25T08:19:12.229Z,1.40
2018-09-25T08:21:46.537Z,1.43
2018-09-25T08:24:20.837Z,1.60
2018-09-25T08:26:55.190Z,1.63
2018-09-25T08:29:29.389Z,1.70
2018-09-25T08:32:03.741Z,1.93
2018-09-25T08:34:37.990Z,1.30
2018-09-25T08:37:12.808Z,1.83
2018-09-25T08:39:47.435Z,1.77
2018-09-25T08:42:21.854Z,1.20
2018-09-25T08:44:56.281Z,1.30
2018-09-25T08:47:30.577Z,1.20
2018-09-25T08:50:04.910Z,0.73
2018-09-25T08:52:39.106Z,0.83
2018-09-25T08:55:13.812Z,0.80
2018-09-25T08:57:48.377Z,1.10
2018-09-25T09:00:22.801Z,1.47
2018-09-25T09:02:57.051Z,1.80
2018-09-25T09:05:31.403Z,1.50
2018-09-25T09:08:05.817Z,0.87
2018-09-25T09:10:40.098Z,0.53
2018-09-25T09:13:14.111Z,0.50
2018-09-25T09:15:48.526Z,1.10
2018-09-25T09:18:23.088Z,0.70
2018-09-25T09:20:57.462Z,1.27
2018-09-25T09:23:31.732Z,1.23
2018-09-25T09:26:06.288Z,0.70
2018-09-25T09:28:40.694Z,1.20
2018-09-25T09:31:14.971Z,1.20
2018-09-25T09:33:49.101Z,1.20
2018-09-25T09:36:23.408Z,1.00
2018-09-25T09:38:57.878Z,0.77
2018-09-25T09:41:32.361Z,1.00
2018-09-25T09:44:06.604Z,0.93
2018-09-25T09:46:40.825Z,1.00
2018-09-25T09:49:15.207Z,0.70
2018-09-25T09:51:49.674Z,1.30
2018-09-25T09:54:23.970Z,1.40
2018-09-25T09:56:58.330Z,0.90
2018-09-25T09:59:32.518Z,0.30
2018-09-25T10:02:06.864Z,0.57
2018-09-25T10:04:41.231Z,0.93
2018-09-25T10:07:15.450Z,0.60
2018-09-25T10:09:49.632Z,0.50
2018-09-25T10:12:23.789Z,0.70
2018-09-25T10:14:58.194Z,0.70
2018-09-25T10:17:32.445Z,0.40
2018-09-25T10:20:06.570Z,0.90
2018-09-25T10:22:40.984Z,0.40
2018-09-25T10:25:15.149Z,0.83
2018-09-25T10:27:49.554Z,0.30
2018-09-25T10:30:23.789Z,0.63
2018-09-25T10:32:58.280Z,0.50
2018-09-25T10:35:32.544Z,0.60
2018-09-25T10:38:06.792Z,0.70
2018-09-25T10:40:41.722Z,0.30
2018-09-25T10:43:16.069Z,0.50
2018-09-25T10:45:50.341Z,0.50
2018-09-25T10:48:24.471Z,0.70
2018-09-25T10:50:58.754Z,0.83
2018-09-25T10:53:33.313Z,0.50
2018-09-25T10:56:07.568Z,0.50
2018-09-25T10:58:41.738Z,0.50
2018-09-25T11:01:16.101Z,0.30
2018-09-25T11:03:50.461Z,0.47
2018-09-25T11:06:24.568Z,0.40
2018-09-25T11:08:58.741Z,0.70
2018-09-25T11:11:32.954Z,0.20
2018-09-25T11:14:07.272Z,0.37
2018-09-25T11:16:41.530Z,0.80
2018-09-25T11:19:15.883Z,0.33
2018-09-25T11:21:50.063Z,0.60
2018-09-25T11:24:24.122Z,0.40
2018-09-25T11:26:58.325Z,0.30
2018-09-25T11:29:32.605Z,0.70
2018-09-25T11:32:06.782Z,0.50
2018-09-25T11:34:41.031Z,0.40
2018-09-25T11:37:15.189Z,0.27
2018-09-25T11:39:49.313Z,0.70
2018-09-25T11:42:23.380Z,0.90
2018-09-25T11:44:57.570Z,0.20
2018-09-25T11:47:32.093Z,0.57
2018-09-25T11:50:06.458Z,0.50
2018-09-25T11:52:40.684Z,0.50
2018-09-25T11:55:14.957Z,0.97
2018-09-25T11:57:49.228Z,0.50
2018-09-25T12:00:23.541Z,0.73
2018-09-25T12:02:57.858Z,0.50
2018-09-25T12:05:32.286Z,0.60
2018-09-25T12:08:06.490Z,0.77
2018-09-25T12:10:40.920Z,0.37
2018-09-25T12:13:15.386Z,0.40
2018-09-25T12:15:49.810Z,0.30
2018-09-25T12:18:24.182Z,0.20
2018-09-25T12:20:58.352Z,0.53
2018-09-25T12:23:33.162Z,0.40
2018-09-25T12:26:07.322Z,0.40
2018-09-25T12:28:41.744Z,0.37
2018-09-25T12:31:16.388Z,0.30
2018-09-25T12:33:50.772Z,0.70
2018-09-25T12:36:25.109Z,0.80
2018-09-25T12:38:59.487Z,1.00
2018-09-25T12:41:33.857Z,0.80
2018-09-25T12:44:08.034Z,0.50
2018-09-25T12:46:42.386Z,0.30
2018-09-25T12:49:16.927Z,0.50
2018-09-25T12:51:51.261Z,0.40
2018-09-25T12:54:25.863Z,0.47
2018-09-25T12:56:59.972Z,0.20
2018-09-25T12:59:34.137Z,0.30
2018-09-25T13:02:08.353Z,0.40
2018-09-25T13:04:42.678Z,0.40
2018-09-25T13:07:16.805Z,0.60
2018-09-25T13:09:50.980Z,0.37
2018-09-25T13:12:25.088Z,0.40
2018-09-25T13:15:04.453Z,0.30
2018-09-25T13:17:38.608Z,0.40
2018-09-25T13:20:13.013Z,0.80
2018-09-25T13:22:47.209Z,0.50
2018-09-25T13:25:21.310Z,0.30
2018-09-25T13:27:55.448Z,0.50
2018-09-25T13:30:29.649Z,0.40
2018-09-25T13:33:03.726Z,0.43
2018-09-25T13:35:37.933Z,0.27
2018-09-25T13:38:12.247Z,0.47
2018-09-25T13:40:46.406Z,0.50
2018-09-25T13:43:20.582Z,0.50
2018-09-25T13:45:54.821Z,0.50
2018-09-25T13:48:28.985Z,0.30
2018-09-25T13:51:03.309Z,0.57
2018-09-25T13:53:37.427Z,0.50
2018-09-25T13:56:11.652Z,0.83
2018-09-25T13:58:45.810Z,0.77
2018-09-25T14:01:20.140Z,0.50
2018-09-25T14:03:54.283Z,1.13
2018-09-25T14:06:28.608Z,0.30
2018-09-25T14:09:02.690Z,0.30
2018-09-25T14:11:37.027Z,0.73
2018-09-25T14:14:11.123Z,0.30
2018-09-25T14:16:45.382Z,0.30
2018-09-25T14:19:19.545Z,0.33
2018-09-25T14:21:53.697Z,0.43
2018-09-25T14:24:27.762Z,0.40
2018-09-25T14:27:01.909Z,0.60
2018-09-25T14:29:36.082Z,0.50
2018-09-25T14:32:10.288Z,0.63
2018-09-25T14:34:44.417Z,1.70
2018-09-25T14:37:18.578Z,0.70
2018-09-25T14:39:52.720Z,0.93
2018-09-25T14:42:26.958Z,0.70
2018-09-25T14:45:01.158Z,0.63
2018-09-25T14:47:35.328Z,0.70
2018-09-25T14:50:09.687Z,1.00
2018-09-25T14:52:43.820Z,2.50
2018-09-25T14:55:17.973Z,1.40
2018-09-25T14:57:52.110Z,0.50
2018-09-25T15:00:26.353Z,0.80
2018-09-25T15:03:00.537Z,0.30
2018-09-25T15:05:36.738Z,0.50
2018-09-25T15:08:15.526Z,0.30
2018-09-25T15:10:54.527Z,0.33
2018-09-25T15:13:29.219Z,0.30
2018-09-25T15:16:05.267Z,0.53
2018-09-25T15:18:39.609Z,0.50
2018-09-25T15:21:14.169Z,0.43
2018-09-25T15:23:48.400Z,0.40
2018-09-25T15:26:22.785Z,0.30
2018-09-25T15:28:56.959Z,0.70
2018-09-25T15:31:31.209Z,0.20
2018-09-25T15:34:05.393Z,0.30
2018-09-25T15:36:39.596Z,0.40
2018-09-25T15:39:15.006Z,0.40
2018-09-25T15:41:49.286Z,0.90
2018-09-25T15:44:23.369Z,0.33
2018-09-25T15:46:57.477Z,0.30
2018-09-25T15:49:31.598Z,0.37
2018-09-25T15:52:09.200Z,0.30
2018-09-25T15:54:45.024Z,0.40
2018-09-25T15:57:20.779Z,0.40
2018-09-25T15:59:56.243Z,0.40
2018-09-25T16:02:32.580Z,0.37
2018-09-25T16:05:08.017Z,0.40
2018-09-25T16:07:43.815Z,0.40
2018-09-25T16:10:19.488Z,0.40
2018-09-25T16:12:55.184Z,0.40
2018-09-25T16:15:29.448Z,0.40
2018-09-25T16:18:03.854Z,0.70
2018-09-25T16:20:38.180Z,0.37
2018-09-25T16:23:12.440Z,0.50
2018-09-25T16:25:46.645Z,0.33
2018-09-25T16:28:21.346Z,0.47
2018-09-25T16:30:55.965Z,0.50
2018-09-25T16:33:30.221Z,0.40
2018-09-25T16:36:04.528Z,0.50
2018-09-25T16:38:39.012Z,0.60
2018-09-25T16:41:15.176Z,0.50
2018-09-25T16:43:51.077Z,0.60
2018-09-25T16:46:27.017Z,0.40
2018-09-25T16:49:03.742Z,0.90
2018-09-25T16:51:38.277Z,0.57
2018-09-25T16:54:13.675Z,0.70
2018-09-25T16:59:41.013Z,0.40
2018-09-25T17:02:16.056Z,0.60
2018-09-25T17:04:51.117Z,0.63
2018-09-25T17:07:25.522Z,0.93
2018-09-25T17:10:00.517Z,0.50
2018-09-25T17:12:34.753Z,0.37
2018-09-25T17:15:09.479Z,0.60
2018-09-25T17:17:44.708Z,0.60
2018-09-25T17:20:19.158Z,0.40
2018-09-25T17:22:53.369Z,0.40
2018-09-25T17:25:27.583Z,0.30
2018-09-25T17:28:02.258Z,0.43
2018-09-25T17:30:36.848Z,0.40
2018-09-25T17:33:11.224Z,0.40
2018-09-25T17:35:45.764Z,0.67
2018-09-25T17:38:19.946Z,0.73
2018-09-25T17:40:54.228Z,0.67
2018-09-25T17:43:28.389Z,0.80
2018-09-25T17:46:02.545Z,0.40
2018-09-25T17:48:37.056Z,0.40
2018-09-25T17:51:13.809Z,0.33
2018-09-25T17:53:48.168Z,0.40
2018-09-25T17:56:22.535Z,0.60
2018-09-25T17:59:08.460Z,0.40
2018-09-25T18:01:48.089Z,0.40
2018-09-25T18:04:23.290Z,0.57
2018-09-25T18:06:57.469Z,0.57
2018-09-25T18:09:31.744Z,0.83
2018-09-25T18:12:06.209Z,0.40
2018-09-25T18:14:40.454Z,0.40
2018-09-25T18:17:14.709Z,0.50
2018-09-25T18:19:48.908Z,0.50
2018-09-25T18:22:23.144Z,0.50
2018-09-25T18:24:57.358Z,0.50
2018-09-25T18:27:31.585Z,0.33
2018-09-25T18:30:05.718Z,0.47
2018-09-25T18:32:39.906Z,0.47
2018-09-25T18:35:14.235Z,0.80
2018-09-25T18:37:48.383Z,0.83
2018-09-25T18:40:22.629Z,0.47
2018-09-25T18:42:56.846Z,0.60
2018-09-25T18:45:31.049Z,0.30
2018-09-25T18:48:05.394Z,0.50
2018-09-25T18:50:39.824Z,0.30
2018-09-25T18:53:13.889Z,0.43
2018-09-25T18:55:48.145Z,0.87
2018-09-25T18:58:22.423Z,0.50
2018-09-25T19:00:56.609Z,0.50
2018-09-25T19:03:30.825Z,0.57
2018-09-25T19:06:05.000Z,0.50
2018-09-25T19:08:39.196Z,0.40
2018-09-25T19:11:13.393Z,0.40
2018-09-25T19:13:47.645Z,0.50
2018-09-25T19:16:21.822Z,0.53
2018-09-25T19:18:56.056Z,0.40
2018-09-25T19:21:30.294Z,0.53
2018-09-25T19:24:04.485Z,0.70
2018-09-25T19:26:38.590Z,0.30
2018-09-25T19:29:12.745Z,0.50
2018-09-25T19:31:47.010Z,0.80
2018-09-25T19:34:21.088Z,0.53
2018-09-25T19:36:55.369Z,0.40
2018-09-25T19:39:29.570Z,0.97
2018-09-25T19:42:03.757Z,0.63
2018-09-25T19:44:37.933Z,1.10
2018-09-25T19:47:12.492Z,0.97
2018-09-25T19:49:46.592Z,1.20
2018-09-25T19:52:20.747Z,1.03
2018-09-25T19:54:54.972Z,0.90
2018-09-25T19:57:29.192Z,1.00
2018-09-25T20:00:03.414Z,0.80
2018-09-25T20:02:37.872Z,1.57
2018-09-25T20:05:12.006Z,0.90
2018-09-25T20:07:46.105Z,0.63
2018-09-25T20:10:20.325Z,1.03
2018-09-25T20:12:54.621Z,1.13
2018-09-25T20:15:28.700Z,1.77
2018-09-25T20:18:02.904Z,1.00
2018-09-25T20:20:37.088Z,0.80
2018-09-25T20:23:11.269Z,0.80
2018-09-25T20:25:45.529Z,0.60
2018-09-25T20:28:19.668Z,0.50
2018-09-25T20:30:53.757Z,0.30
2018-09-25T20:33:28.104Z,0.40
2018-09-25T20:36:02.250Z,0.57
2018-09-25T20:38:36.416Z,0.50
2018-09-25T20:41:10.645Z,0.83
2018-09-25T20:43:44.970Z,0.80
2018-09-25T20:46:19.582Z,0.40
2018-09-25T20:48:53.725Z,0.40
2018-09-25T20:51:28.003Z,0.73
2018-09-25T20:54:02.531Z,0.67
2018-09-25T20:56:36.761Z,0.73
2018-09-25T20:59:10.929Z,1.00
2018-09-25T21:01:45.114Z,0.70
2018-09-25T21:04:19.261Z,0.50
2018-09-25T21:06:53.575Z,1.33
2018-09-25T21:09:28.167Z,1.17
2018-09-25T21:12:02.639Z,0.77
2018-09-25T21:14:36.910Z,0.90
2018-09-25T21:17:11.429Z,0.60
2018-09-25T21:19:45.879Z,0.50
2018-09-25T21:22:20.328Z,0.90
2018-09-25T21:24:54.744Z,1.57
2018-09-25T21:27:40.810Z,0.97
2018-09-25T21:30:15.095Z,1.10
2018-09-25T21:32:49.365Z,0.90
2018-09-25T21:35:23.609Z,0.73
2018-09-25T21:37:57.743Z,0.80
2018-09-25T21:40:32.421Z,0.50
2018-09-25T21:43:08.688Z,0.90
2018-09-25T21:45:42.880Z,0.50
2018-09-25T21:48:17.134Z,0.40
2018-09-25T21:50:51.588Z,1.33
2018-09-25T21:53:26.006Z,0.90
2018-09-25T21:56:00.423Z,0.67
2018-09-25T21:58:34.704Z,1.17
2018-09-25T22:01:08.945Z,0.53
2018-09-25T22:03:43.196Z,0.73
2018-09-25T22:06:17.583Z,0.50
2018-09-25T22:08:51.701Z,0.80
2018-09-25T22:11:25.918Z,0.70
2018-09-25T22:14:00.026Z,1.00
2018-09-25T22:16:35.768Z,0.77
2018-09-25T22:19:10.157Z,0.70
2018-09-25T22:21:44.329Z,0.70
2018-09-25T22:24:18.434Z,0.60
2018-09-25T22:26:52.644Z,0.70
2018-09-25T22:29:27.060Z,0.67
2018-09-25T22:32:01.573Z,0.60
2018-09-25T22:34:35.971Z,0.63
2018-09-25T22:37:10.225Z,0.90
2018-09-25T22:39:44.441Z,0.50
2018-09-25T22:42:18.863Z,1.03
2018-09-25T22:44:53.146Z,0.50
2018-09-25T22:47:27.308Z,0.83
2018-09-25T22:50:01.481Z,0.60
2018-09-25T22:52:36.562Z,0.60
2018-09-25T22:55:10.770Z,0.50
2018-09-25T22:57:45.039Z,1.73
2018-09-25T23:00:19.356Z,0.63
2018-09-25T23:02:53.758Z,0.40
2018-09-25T23:05:27.791Z,0.60
2018-09-25T23:08:01.984Z,0.70
2018-09-25T23:10:36.244Z,0.50
2018-09-25T23:13:10.343Z,0.50
2018-09-25T23:15:44.538Z,0.60
2018-09-25T23:18:18.749Z,0.40
2018-09-25T23:20:52.780Z,0.50
2018-09-25T23:23:27.018Z,0.47
2018-09-25T23:26:01.299Z,0.50
2018-09-25T23:28:35.348Z,0.60
2018-09-25T23:31:09.442Z,0.43
2018-09-25T23:33:43.499Z,0.57
2018-09-25T23:36:17.742Z,0.50
2018-09-25T23:38:51.920Z,0.90
2018-09-25T23:41:26.125Z,0.50
2018-09-25T23:44:00.298Z,0.60
2018-09-25T23:47:07.197Z,0.40
2018-09-25T23:50:40.775Z,0.73
2018-09-25T23:53:22.405Z,0.87
2018-09-25T23:56:09.799Z,1.00
2018-09-25T23:58:45.935Z,0.80
